Time;durP1;ratioP1;P1;durP2;ratioP2;P2;SDS_P1;SDS_P2;PMS_P1;PMS_P2;Temp;Humidity;BMP_temperature;BMP_pressure;BME280_temperature;BME280_humidity;BME280_pressure;Samples;Min_cycle;Max_cycle;Signal;HPM_P1;HPM_P2
2022/04/26 03:37:29;;;;;;;8.80;5.43;;;9.10;99.90;;;;;;5011416;28;20032;-76
2022/04/26 03:39:55;;;;;;;;;;;9.10;99.90;;;;;;5012926;28;20485;-77
2022/04/26 03:42:21;;;;;;;8.98;5.57;;;9.10;99.90;;;;;;5027495;28;19917;-77
2022/04/26 03:44:48;;;;;;;9.43;5.68;;;9.00;99.90;;;;;;5013261;28;20034;-77
2022/04/26 03:47:13;;;;;;;9.20;5.65;;;9.10;99.90;;;;;;5012518;28;20033;-78
2022/04/26 03:49:40;;;;;;;7.63;5.68;;;9.00;99.90;;;;;;5012659;28;20117;-77
2022/04/26 03:52:06;;;;;;;8.13;5.57;;;9.10;99.90;;;;;;5013865;28;20042;-77
2022/04/26 03:54:31;;;;;;;9.05;5.95;;;9.10;99.90;;;;;;5012722;28;20030;-77
2022/04/26 03:56:58;;;;;;;7.40;5.72;;;9.10;99.90;;;;;;5013124;28;20034;-76
2022/04/26 03:59:24;;;;;;;7.72;5.53;;;9.00;99.90;;;;;;5010244;28;20026;-77
2022/04/26 04:01:52;;;;;;;9.98;6.00;;;9.10;99.90;;;;;;5008206;28;20112;-76
2022/04/26 04:04:27;;;;;;;8.18;5.80;;;9.10;99.90;;;;;;5012247;28;20546;-76
2022/04/26 04:06:53;;;;;;;9.45;6.20;;;9.10;99.90;;;;;;5012550;28;20029;-77
2022/04/26 04:09:19;;;;;;;8.02;5.80;;;9.10;99.90;;;;;;5013628;28;20041;-76
2022/04/26 04:11:46;;;;;;;9.75;6.18;;;9.00;99.90;;;;;;5012380;28;20037;-77
2022/04/26 04:14:13;;;;;;;8.60;5.40;;;9.00;99.90;;;;;;5009647;28;20217;-77
2022/04/26 04:16:40;;;;;;;9.07;6.35;;;9.00;99.90;;;;;;5014728;28;20598;-77
2022/04/26 04:19:23;;;;;;;9.18;5.55;;;9.00;99.90;;;;;;5010101;28;20043;-77
2022/04/26 04:21:50;;;;;;;12.93;6.95;;;9.00;99.90;;;;;;5006161;28;20054;-76
2022/04/26 04:24:26;;;;;;;9.07;6.57;;;9.00;99.90;;;;;;5010240;28;20038;-75
2022/04/26 04:26:52;;;;;;;8.32;6.10;;;9.00;99.90;;;;;;5011714;28;20084;-75
2022/04/26 04:29:18;;;;;;;9.20;6.20;;;9.00;99.90;;;;;;5009372;28;20199;-76
2022/04/26 04:31:47;;;;;;;9.50;6.20;;;9.00;99.90;;;;;;5009282;28;20151;-76
2022/04/26 04:34:16;;;;;;;9.82;5.28;;;9.00;99.90;;;;;;5009657;28;20038;-75
2022/04/26 04:36:43;;;;;;;10.50;6.43;;;9.00;99.90;;;;;;4992782;28;20038;-77
2022/04/26 04:39:08;;;;;;;8.13;5.65;;;9.00;99.90;;;;;;5011958;28;20141;-76
2022/04/26 04:41:37;;;;;;;11.63;6.10;;;9.00;99.90;;;;;;5009745;28;20029;-76
2022/04/26 04:44:07;;;;;;;8.20;5.50;;;9.00;99.90;;;;;;5007320;28;20041;-76
2022/04/26 04:46:34;;;;;;;8.27;5.65;;;9.00;99.90;;;;;;5009076;28;20041;-77
2022/04/26 04:49:00;;;;;;;9.90;5.22;;;9.10;99.90;;;;;;5007420;28;20042;-77
2022/04/26 04:51:25;;;;;;;8.32;5.82;;;9.10;99.90;;;;;;5007894;28;20038;-77
2022/04/26 04:53:51;;;;;;;8.13;5.68;;;9.10;99.90;;;;;;5009041;28;20037;-77
2022/04/26 04:56:16;;;;;;;6.60;4.55;;;9.10;99.90;;;;;;5007798;28;20046;-77
2022/04/26 04:58:42;;;;;;;6.93;5.03;;;9.10;99.90;;;;;;5008165;28;20029;-77
2022/04/26 05:01:08;;;;;;;7.55;5.03;;;9.00;99.90;;;;;;5004779;28;20110;-77
2022/04/26 05:03:33;;;;;;;6.63;5.30;;;9.00;99.90;;;;;;5006941;28;20029;-76
2022/04/26 05:05:59;;;;;;;8.57;5.43;;;9.00;99.90;;;;;;5009950;28;20037;-77
2022/04/26 05:08:25;;;;;;;9.48;5.82;;;8.90;99.90;;;;;;5007374;28;20029;-77
2022/04/26 05:10:51;;;;;;;7.38;5.65;;;8.90;99.90;;;;;;5003903;28;20255;-77
2022/04/26 05:13:16;;;;;;;8.55;5.18;;;8.90;99.90;;;;;;5007572;28;20034;-77
2022/04/26 05:15:44;;;;;;;6.70;5.15;;;9.00;99.90;;;;;;5010208;28;20835;-76
2022/04/26 05:18:12;;;;;;;6.60;5.03;;;9.00;99.90;;;;;;5006521;28;20025;-77
2022/04/26 05:20:38;;;;;;;8.68;5.30;;;9.00;99.90;;;;;;5007194;28;20285;-76
2022/04/26 05:25:48;;;;;;;8.05;5.35;;;9.10;99.90;;;;;;5007697;28;20482;-77
2022/04/26 05:28:13;;;;;;;8.75;5.47;;;9.10;99.90;;;;;;5008725;28;20516;-78
2022/04/26 05:30:39;;;;;;;9.43;5.80;;;9.10;99.90;;;;;;5004856;28;20607;-77
2022/04/26 05:33:05;;;;;;;10.15;6.53;;;9.10;99.90;;;;;;5010275;28;20053;-77
2022/04/26 05:35:31;;;;;;;8.80;5.10;;;9.10;99.90;;;;;;5010312;28;20046;-77
2022/04/26 05:37:56;;;;;;;8.32;6.00;;;9.00;99.90;;;;;;5008415;28;20144;-78
2022/04/26 05:40:23;;;;;;;9.07;6.10;;;9.00;99.90;;;;;;5007721;28;20837;-77
2022/04/26 05:42:48;;;;;;;10.52;6.25;;;9.00;99.90;;;;;;5012795;28;20559;-78
2022/04/26 05:45:14;;;;;;;10.20;6.43;;;9.10;99.90;;;;;;5007901;28;20042;-78
2022/04/26 05:47:45;;;;;;;8.60;5.53;;;9.10;99.90;;;;;;5009598;28;20026;-78
2022/04/26 05:50:12;;;;;;;8.23;5.75;;;9.10;99.90;;;;;;5007721;28;20060;-78
2022/04/26 05:52:37;;;;;;;9.57;5.95;;;9.20;99.90;;;;;;5003905;28;20397;-76
2022/04/26 05:55:04;;;;;;;10.45;6.07;;;9.20;99.90;;;;;;5006566;28;20038;-77
2022/04/26 05:57:31;;;;;;;10.68;6.05;;;9.20;99.90;;;;;;5007820;28;20577;-77
2022/04/26 05:59:56;;;;;;;11.23;6.32;;;9.20;99.90;;;;;;5008129;28;20047;-77
2022/04/26 06:02:22;;;;;;;10.00;6.47;;;9.30;99.90;;;;;;5006110;28;20053;-77
2022/04/26 06:04:48;;;;;;;8.82;6.32;;;9.30;99.90;;;;;;5008154;28;20033;-78
2022/04/26 06:07:13;;;;;;;11.27;5.88;;;9.30;99.90;;;;;;5008327;28;20091;-77
2022/04/26 06:09:40;;;;;;;9.27;6.40;;;9.40;99.90;;;;;;5007988;28;20056;-77
2022/04/26 06:12:06;;;;;;;10.48;6.20;;;9.40;99.90;;;;;;5007500;28;20109;-76
2022/04/26 06:14:32;;;;;;;10.38;6.53;;;9.40;99.90;;;;;;5009409;28;20041;-76
2022/04/26 06:16:58;;;;;;;11.27;6.88;;;9.40;99.90;;;;;;5009586;28;20034;-77
2022/04/26 06:19:23;;;;;;;8.20;6.07;;;9.40;99.90;;;;;;5009269;28;20053;-77
2022/04/26 06:21:49;;;;;;;8.57;5.90;;;9.50;99.90;;;;;;5007739;28;20679;-76
2022/04/26 06:24:15;;;;;;;9.63;6.38;;;9.50;99.90;;;;;;5007069;28;20026;-76
2022/04/26 06:26:41;;;;;;;11.05;6.90;;;9.50;99.90;;;;;;5008396;28;20575;-77
2022/04/26 06:29:07;;;;;;;9.93;6.95;;;9.50;99.90;;;;;;5007041;28;20516;-77
2022/04/26 06:31:32;;;;;;;9.65;5.97;;;9.50;99.90;;;;;;5004359;28;20140;-76
2022/04/26 06:33:58;;;;;;;8.38;5.40;;;9.60;99.90;;;;;;5009883;28;20030;-77
2022/04/26 06:36:23;;;;;;;11.07;6.78;;;9.70;99.90;;;;;;5010046;28;20037;-77
2022/04/26 06:38:49;;;;;;;8.93;6.00;;;9.60;99.90;;;;;;5009392;28;20041;-76
2022/04/26 06:41:15;;;;;;;10.70;6.80;;;9.60;99.90;;;;;;5011163;28;20038;-77
2022/04/26 06:43:41;;;;;;;10.93;5.90;;;9.70;99.90;;;;;;5012616;28;20050;-76
2022/04/26 06:46:09;;;;;;;8.43;6.28;;;9.80;99.90;;;;;;5017112;28;20065;-78
2022/04/26 06:48:35;;;;;;;8.38;5.60;;;9.80;99.90;;;;;;5015983;28;20118;-77
2022/04/26 06:51:01;;;;;;;9.90;6.20;;;9.80;99.90;;;;;;5012531;28;20120;-77
2022/04/26 06:53:27;;;;;;;10.40;6.30;;;9.80;99.90;;;;;;5016144;28;20049;-77
2022/04/26 06:55:52;;;;;;;11.05;6.47;;;9.90;99.90;;;;;;5015739;28;20489;-77
2022/04/26 06:58:21;;;;;;;8.00;5.85;;;10.00;99.90;;;;;;5017853;28;20093;-77
2022/04/26 07:00:49;;;;;;;7.55;5.53;;;10.00;99.90;;;;;;5022808;28;20053;-76
2022/04/26 07:03:15;;;;;;;8.05;5.05;;;10.10;99.90;;;;;;5014816;28;20034;-77
2022/04/26 07:05:41;;;;;;;7.03;5.10;;;10.10;99.90;;;;;;5016803;28;20534;-77
2022/04/26 07:08:07;;;;;;;6.82;4.93;;;10.00;99.90;;;;;;5015212;28;20045;-76
2022/04/26 07:10:33;;;;;;;7.80;4.97;;;10.00;99.90;;;;;;5014518;28;20068;-75
2022/04/26 07:12:58;;;;;;;9.40;5.20;;;10.10;99.90;;;;;;5010757;28;20057;-75
2022/04/26 07:15:25;;;;;;;7.45;5.20;;;10.20;99.90;;;;;;5018170;28;20041;-76
2022/04/26 07:17:51;;;;;;;9.07;5.68;;;10.10;99.90;;;;;;5015028;28;20029;-75
2022/04/26 07:20:17;;;;;;;6.68;4.93;;;10.10;99.90;;;;;;5010810;28;20053;-76
2022/04/26 07:22:43;;;;;;;8.65;5.90;;;10.10;99.90;;;;;;5014874;28;20543;-76
2022/04/26 07:25:12;;;;;;;9.68;5.45;;;10.20;99.90;;;;;;5012079;28;20042;-77
2022/04/26 07:27:39;;;;;;;6.18;4.60;;;10.20;99.90;;;;;;5014007;28;20098;-76
2022/04/26 07:30:05;;;;;;;8.15;4.78;;;10.10;99.90;;;;;;5013210;28;20404;-76
2022/04/26 07:35:19;;;;;;;5.90;4.45;;;10.10;99.90;;;;;;5013737;28;20121;-76
2022/04/26 07:37:45;;;;;;;8.55;5.35;;;10.20;99.90;;;;;;5013980;28;20268;-77
2022/04/26 07:40:11;;;;;;;7.45;5.00;;;10.30;99.90;;;;;;5014026;28;20038;-76
2022/04/26 07:42:37;;;;;;;8.88;5.68;;;10.30;99.90;;;;;;5012079;28;20096;-76
2022/04/26 07:45:03;;;;;;;7.80;5.45;;;10.40;99.90;;;;;;5015049;28;20057;-76
2022/04/26 07:47:30;;;;;;;10.48;5.43;;;10.50;99.90;;;;;;5015094;28;20034;-76
2022/04/26 07:49:57;;;;;;;6.22;4.65;;;10.60;99.90;;;;;;5011500;28;20018;-76
2022/04/26 07:52:23;;;;;;;7.50;5.25;;;10.80;99.90;;;;;;5013919;28;20040;-77
2022/04/26 07:54:50;;;;;;;8.18;5.10;;;10.90;99.90;;;;;;5015510;28;20034;-76
2022/04/26 07:57:16;;;;;;;6.78;5.53;;;11.00;99.90;;;;;;5027924;28;20587;-76
2022/04/26 07:59:41;;;;;;;8.82;5.20;;;11.00;99.90;;;;;;5014285;28;20041;-77
2022/04/26 08:02:08;;;;;;;8.45;5.47;;;11.10;99.90;;;;;;5012604;28;20076;-77
2022/04/26 08:04:34;;;;;;;6.30;4.88;;;11.10;99.90;;;;;;5013415;28;20033;-77
2022/04/26 08:06:59;;;;;;;6.25;4.82;;;11.20;99.90;;;;;;5013753;28;20038;-76
2022/04/26 08:09:25;;;;;;;6.55;5.07;;;11.10;99.90;;;;;;5012828;28;20026;-76
2022/04/26 08:11:51;;;;;;;4.88;4.30;;;11.10;99.90;;;;;;5014589;28;20544;-75
2022/04/26 08:14:16;;;;;;;4.53;3.63;;;11.10;99.90;;;;;;5011934;28;20026;-76
2022/04/26 08:16:42;;;;;;;5.95;4.93;;;11.20;99.90;;;;;;5013280;28;20105;-77
2022/04/26 08:19:10;;;;;;;6.35;4.00;;;11.10;99.90;;;;;;5013571;28;20145;-76
2022/04/26 08:21:39;;;;;;;5.13;4.25;;;11.00;99.90;;;;;;5014527;28;20101;-76
2022/04/26 08:29:37;;;;;;;4.72;3.42;;;11.10;99.90;;;;;;5020461;28;20152;-76
2022/04/26 08:32:03;;;;;;;6.38;2.90;;;11.00;99.90;;;;;;5017004;28;20100;-77
2022/04/26 08:34:29;;;;;;;5.82;4.75;;;10.90;99.90;;;;;;5015657;28;20026;-77
2022/04/26 08:36:55;;;;;;;5.82;4.50;;;10.90;99.90;;;;;;5010392;28;20093;-76
2022/04/26 08:39:23;;;;;;;8.73;4.28;;;10.90;99.90;;;;;;5011721;28;20661;-77
2022/04/26 08:41:49;;;;;;;4.75;3.70;;;10.90;99.90;;;;;;5014088;28;20435;-76
2022/04/26 08:44:15;;;;;;;5.85;4.32;;;10.80;99.90;;;;;;5013443;28;20062;-76
2022/04/26 08:52:09;;;;;;;5.93;4.50;;;10.60;99.90;;;;;;5013320;28;20052;-76
2022/04/26 08:54:35;;;;;;;5.65;3.92;;;10.60;99.90;;;;;;5011395;28;20037;-76
2022/04/26 08:57:02;;;;;;;5.28;4.25;;;10.60;99.90;;;;;;5012998;28;20041;-76
2022/04/26 08:59:28;;;;;;;5.43;3.33;;;10.50;99.90;;;;;;5012546;28;20029;-76
2022/04/26 09:02:13;;;;;;;6.43;4.47;;;10.40;99.90;;;;;;5010487;28;20054;-76
2022/04/26 09:04:39;;;;;;;6.15;4.38;;;10.30;99.90;;;;;;5012720;28;20025;-76
2022/04/26 09:07:10;;;;;;;3.92;3.53;;;10.20;99.90;;;;;;5010132;28;20864;-76
2022/04/26 09:09:39;;;;;;;11.15;3.67;;;10.20;99.90;;;;;;5012506;28;20030;-76
2022/04/26 09:12:10;;;;;;;4.35;2.92;;;10.10;99.90;;;;;;5008912;28;20026;-76
2022/04/26 09:14:39;;;;;;;5.07;3.95;;;10.10;99.90;;;;;;5009093;28;20065;-76
2022/04/26 09:17:12;;;;;;;8.90;4.50;;;10.10;99.90;;;;;;5012596;28;20112;-77
2022/04/26 09:19:44;;;;;;;5.65;3.95;;;10.00;99.90;;;;;;5009429;28;20113;-77
2022/04/26 09:22:21;;;;;;;4.00;2.63;;;10.00;99.90;;;;;;5006964;28;20124;-77
2022/04/26 09:25:03;;;;;;;4.00;3.10;;;9.90;99.90;;;;;;5011713;28;20029;-77
2022/04/26 09:27:29;;;;;;;6.13;3.60;;;9.90;99.90;;;;;;5007368;28;20097;-77
2022/04/26 09:29:55;;;;;;;4.55;3.30;;;9.80;99.90;;;;;;5013333;28;20037;-77
2022/04/26 09:32:23;;;;;;;6.45;4.05;;;9.90;99.90;;;;;;5012399;28;20116;-77
2022/04/26 09:34:49;;;;;;;7.10;3.60;;;9.90;99.90;;;;;;5010797;28;20044;-77
2022/04/26 09:37:16;;;;;;;4.72;3.72;;;9.90;99.90;;;;;;5008333;28;20786;-77
2022/04/26 09:40:02;;;;;;;3.25;2.58;;;9.90;99.90;;;;;;5012515;28;20501;-78
2022/04/26 09:42:33;;;;;;;4.70;3.70;;;10.00;99.90;;;;;;5011423;28;20062;-78
2022/04/26 09:45:10;;;;;;;4.63;3.05;;;9.80;99.90;;;;;;5009030;28;20120;-77
2022/04/26 09:47:40;;;;;;;5.00;3.38;;;9.70;99.90;;;;;;5013581;28;20042;-78
2022/04/26 09:50:12;;;;;;;5.75;4.47;;;9.70;99.90;;;;;;5014063;28;20030;-78
2022/04/26 09:52:38;;;;;;;6.35;4.07;;;9.70;99.90;;;;;;5012064;28;20029;-77
2022/04/26 09:55:07;;;;;;;5.50;3.42;;;9.70;99.90;;;;;;5012159;28;20034;-77
2022/04/26 09:57:34;;;;;;;6.88;4.28;;;9.70;99.90;;;;;;5010559;28;20117;-77
2022/04/26 10:00:03;;;;;;;5.35;3.78;;;9.70;99.90;;;;;;5010387;28;20030;-77
2022/04/26 10:02:35;;;;;;;4.28;3.20;;;9.50;99.90;;;;;;5012066;28;20060;-77
2022/04/26 10:05:08;;;;;;;3.08;2.22;;;9.40;99.90;;;;;;5012167;28;20034;-77
2022/04/26 10:07:40;;;;;;;6.28;3.42;;;9.30;99.90;;;;;;5009810;28;20091;-77
2022/04/26 10:10:07;;;;;;;4.00;3.08;;;9.40;99.90;;;;;;5012552;28;20635;-76
2022/04/26 10:12:33;;;;;;;3.92;3.47;;;9.40;99.90;;;;;;5008808;28;20053;-77
2022/04/26 10:15:00;;;;;;;2.45;1.90;;;9.30;99.90;;;;;;5011437;28;20533;-77
2022/04/26 10:17:26;;;;;;;2.80;2.53;;;9.20;99.90;;;;;;5010482;28;20074;-76
2022/04/26 10:19:52;;;;;;;1.95;1.85;;;9.20;99.90;;;;;;5008277;28;20072;-77
2022/04/26 10:22:57;;;;;;;2.67;2.47;;;9.10;99.90;;;;;;5013034;28;20493;-77
2022/04/26 10:25:25;;;;;;;2.35;1.80;;;8.90;99.90;;;;;;5014239;28;20128;-77
2022/04/26 10:28:26;;;;;;;2.72;1.52;;;8.80;99.90;;;;;;5016103;28;20037;-77
2022/04/26 10:30:56;;;;;;;1.60;1.50;;;8.80;99.90;;;;;;5015395;28;20813;-77
2022/04/26 10:33:42;;;;;;;2.08;1.50;;;8.80;99.90;;;;;;5016020;28;20460;-78
2022/04/26 10:36:38;;;;;;;1.92;1.60;;;8.70;99.90;;;;;;5016229;28;20038;-77
2022/04/26 10:39:07;;;;;;;2.83;1.95;;;8.60;99.90;;;;;;5015780;28;20045;-77
2022/04/26 10:41:37;;;;;;;2.60;2.00;;;8.60;99.90;;;;;;5013923;28;20030;-77
2022/04/26 10:44:24;;;;;;;2.30;2.10;;;8.70;99.90;;;;;;5013742;28;20080;-77
2022/04/26 10:46:53;;;;;;;1.75;1.65;;;8.70;99.90;;;;;;5012475;28;20476;-77
2022/04/26 10:49:24;;;;;;;2.92;2.00;;;8.70;99.90;;;;;;5014111;28;20098;-78
2022/04/26 10:52:34;;;;;;;2.38;2.17;;;8.70;99.90;;;;;;5013538;28;20037;-78
2022/04/26 10:55:03;;;;;;;3.03;2.65;;;8.70;99.90;;;;;;5019059;28;20038;-78
2022/04/26 10:57:29;;;;;;;2.60;1.70;;;8.80;99.90;;;;;;5010838;28;20049;-78
2022/04/26 11:00:02;;;;;;;4.57;2.95;;;8.80;99.90;;;;;;5014597;28;20112;-77
2022/04/26 11:02:31;;;;;;;4.78;2.55;;;8.90;99.90;;;;;;5012414;28;20070;-78
2022/04/26 11:05:15;;;;;;;5.25;2.70;;;8.90;99.90;;;;;;5015146;28;20029;-78
2022/04/26 11:07:48;;;;;;;3.38;2.33;;;8.90;99.90;;;;;;5014002;28;20026;-77
2022/04/26 11:10:18;;;;;;;2.40;2.22;;;8.90;99.90;;;;;;5012310;28;20030;-78
2022/04/26 11:12:43;;;;;;;2.92;2.63;;;8.80;99.90;;;;;;5014087;28;20026;-78
2022/04/26 11:15:13;;;;;;;2.83;2.60;;;8.90;99.90;;;;;;5009498;28;20533;-77
2022/04/26 11:17:41;;;;;;;4.40;3.45;;;8.80;99.90;;;;;;5011730;28;20582;-78
2022/04/26 11:20:14;;;;;;;6.72;3.60;;;8.90;99.90;;;;;;5012465;28;22192;-77
2022/04/26 11:22:58;;;;;;;3.97;3.35;;;8.90;99.90;;;;;;5010447;28;20630;-78
2022/04/26 11:28:12;;;;;;;5.13;2.90;;;9.10;99.90;;;;;;5009428;28;20455;-77
2022/04/26 11:30:52;;;;;;;4.13;3.05;;;9.00;99.90;;;;;;5010814;28;20037;-78
2022/04/26 11:33:22;;;;;;;5.10;3.22;;;9.00;99.90;;;;;;5011591;28;20068;-77
2022/04/26 11:35:55;;;;;;;4.57;3.60;;;9.00;99.90;;;;;;5010679;28;20033;-78
2022/04/26 11:38:21;;;;;;;3.63;3.13;;;9.10;99.90;;;;;;5011459;28;20092;-78
2022/04/26 11:40:54;;;;;;;5.43;2.20;;;9.10;99.90;;;;;;5011689;28;20038;-78
2022/04/26 11:43:26;;;;;;;2.67;2.47;;;9.10;99.90;;;;;;5011896;28;20077;-78
2022/04/26 11:45:55;;;;;;;4.20;2.63;;;9.10;99.90;;;;;;5010627;28;20034;-78
2022/04/26 11:48:21;;;;;;;;;;;9.20;99.90;;;;;;5012753;28;20114;-78
2022/04/26 11:50:48;;;;;;;3.20;2.22;;;9.20;99.90;;;;;;5004585;28;20032;-77
2022/04/26 11:53:16;;;;;;;2.78;2.10;;;9.30;99.90;;;;;;5001873;28;20018;-77
2022/04/26 11:55:56;;;;;;;2.20;2.00;;;9.20;99.90;;;;;;5005673;28;20033;-77
2022/04/26 11:58:28;;;;;;;3.20;1.80;;;9.20;99.90;;;;;;5005002;28;20099;-78
2022/04/26 12:01:12;;;;;;;2.45;2.10;;;9.30;99.90;;;;;;5003957;28;20401;-78
2022/04/26 12:03:56;;;;;;;2.97;1.73;;;9.30;99.90;;;;;;5006553;28;20038;-77
2022/04/26 12:06:32;;;;;;;4.50;2.30;;;9.40;99.90;;;;;;5004499;28;20050;-77
2022/04/26 12:09:03;;;;;;;3.47;1.98;;;9.40;99.90;;;;;;5008495;28;20485;-77
2022/04/26 12:11:36;;;;;;;1.70;1.60;;;9.40;99.90;;;;;;5007246;28;20139;-78
2022/04/26 12:14:11;;;;;;;4.63;2.20;;;9.40;99.90;;;;;;5004422;28;20113;-77
2022/04/26 12:16:57;;;;;;;1.85;1.60;;;9.40;99.90;;;;;;5005580;28;20034;-78
2022/04/26 12:19:35;;;;;;;1.63;1.52;;;9.60;99.90;;;;;;5000465;28;20378;-77
2022/04/26 12:22:01;;;;;;;1.48;1.38;;;9.80;99.90;;;;;;4996905;28;20062;-78
2022/04/26 12:24:29;;;;;;;1.77;1.50;;;9.80;99.90;;;;;;5004586;28;20441;-78
2022/04/26 12:27:03;;;;;;;2.83;2.10;;;9.90;99.90;;;;;;5002676;28;20036;-77
2022/04/26 12:29:46;;;;;;;5.30;2.75;;;9.80;99.90;;;;;;5003282;28;20073;-77
2022/04/26 12:32:17;;;;;;;2.55;2.17;;;9.60;99.90;;;;;;4998904;28;20484;-77
2022/04/26 12:35:01;;;;;;;2.53;1.90;;;9.60;99.90;;;;;;5001063;28;20030;-77
2022/04/26 12:37:31;;;;;;;2.88;2.50;;;9.50;99.90;;;;;;5001195;28;20037;-76
2022/04/26 12:40:00;;;;;;;3.22;2.28;;;9.50;99.90;;;;;;5003566;28;20030;-77
2022/04/26 12:42:30;;;;;;;2.28;2.10;;;9.30;99.90;;;;;;5000793;28;20042;-76
2022/04/26 12:45:02;;;;;;;5.00;2.92;;;9.20;99.90;;;;;;5005813;28;20354;-77
2022/04/26 12:50:35;;;;;;;5.45;2.95;;;9.20;99.90;;;;;;5003910;28;20583;-77
2022/04/26 12:53:32;;;;;;;3.10;1.90;;;9.20;99.90;;;;;;5005999;28;20041;-77
2022/04/26 12:56:06;;;;;;;3.92;2.72;;;9.40;99.90;;;;;;5007498;28;20038;-77
2022/04/26 12:58:43;;;;;;;2.95;2.40;;;9.60;99.90;;;;;;5004982;28;20036;-77
2022/04/26 13:01:10;;;;;;;4.50;2.88;;;9.80;99.90;;;;;;5008261;28;20053;-77
2022/04/26 13:03:37;;;;;;;5.32;3.05;;;9.80;99.90;;;;;;5005415;28;20034;-77
2022/04/26 13:06:14;;;;;;;4.00;2.72;;;9.90;99.90;;;;;;5005897;28;20072;-78
2022/04/26 13:08:42;;;;;;;5.68;3.40;;;10.00;99.90;;;;;;5006748;28;20038;-76
2022/04/26 13:11:08;;;;;;;5.45;3.30;;;10.00;99.90;;;;;;5005712;28;20125;-77
2022/04/26 13:13:36;;;;;;;4.10;2.53;;;10.20;99.90;;;;;;5000742;28;20152;-76
2022/04/26 13:16:02;;;;;;;;;;;10.10;99.90;;;;;;5003725;28;20389;-76
2022/04/26 13:18:28;;;;;;;4.13;3.10;;;10.20;99.90;;;;;;5008147;28;19915;-77
2022/04/26 13:20:58;;;;;;;2.50;2.28;;;10.40;99.90;;;;;;5006419;28;20501;-77
2022/04/26 13:23:26;;;;;;;5.13;3.22;;;10.50;99.90;;;;;;5008717;28;20041;-77
2022/04/26 13:25:52;;;;;;;3.88;3.17;;;10.60;99.90;;;;;;5007418;28;20381;-77
2022/04/26 13:28:19;;;;;;;6.15;3.70;;;10.50;99.90;;;;;;5007845;28;20104;-77
2022/04/26 13:30:45;;;;;;;3.70;3.25;;;10.50;99.90;;;;;;5003378;28;20040;-78
2022/04/26 13:33:11;;;;;;;5.68;3.55;;;10.30;99.90;;;;;;5005457;28;20041;-78
2022/04/26 13:35:40;;;;;;;6.00;4.65;;;10.30;99.90;;;;;;5006218;28;20069;-77
2022/04/26 13:38:14;;;;;;;4.63;3.75;;;10.30;99.90;;;;;;5006165;28;20149;-77
2022/04/26 13:40:41;;;;;;;5.35;3.65;;;10.30;99.90;;;;;;4998939;28;20074;-77
2022/04/26 13:43:08;;;;;;;4.90;3.38;;;10.20;99.90;;;;;;5015666;28;20057;-78
2022/04/26 13:45:35;;;;;;;4.55;3.17;;;10.00;99.90;;;;;;5006633;28;20488;-77
2022/04/26 13:48:08;;;;;;;4.63;2.83;;;10.00;99.90;;;;;;5008890;28;20038;-77
2022/04/26 13:50:34;;;;;;;5.55;3.05;;;10.00;99.90;;;;;;5008601;28;20042;-77
2022/04/26 13:53:00;;;;;;;7.95;4.20;;;9.90;99.90;;;;;;5002568;28;20056;-76
2022/04/26 13:55:26;;;;;;;5.93;3.63;;;9.90;99.90;;;;;;5005884;28;20042;-77
2022/04/26 13:57:54;;;;;;;5.10;3.75;;;9.90;99.90;;;;;;5007655;28;20033;-77
2022/04/26 14:00:20;;;;;;;4.30;3.88;;;9.80;99.90;;;;;;5003435;28;20100;-77
2022/04/26 14:02:48;;;;;;;6.18;3.92;;;9.80;99.90;;;;;;5001348;28;20035;-76
2022/04/26 14:05:15;;;;;;;4.93;4.20;;;9.90;99.90;;;;;;5004610;28;20082;-76
2022/04/26 14:07:41;;;;;;;2.40;2.20;;;9.70;99.90;;;;;;5007126;28;20369;-77
2022/04/26 14:10:08;;;;;;;2.47;2.25;;;8.90;99.90;;;;;;5003445;28;20071;-76
2022/04/26 14:12:34;;;;;;;2.20;2.00;;;8.60;99.90;;;;;;5008089;28;20578;-76
2022/04/26 14:23:12;;;;;;;1.80;1.70;;;7.90;99.90;;;;;;5003962;28;20052;-77
2022/04/26 14:25:38;;;;;;;3.03;2.03;;;7.80;99.90;;;;;;5004939;28;20856;-78
2022/04/26 14:28:05;;;;;;;3.70;2.40;;;7.90;99.90;;;;;;5006448;28;20037;-77
2022/04/26 14:30:30;;;;;;;3.58;2.63;;;8.00;99.90;;;;;;5008958;28;20180;-78
2022/04/26 14:32:57;;;;;;;3.03;2.63;;;8.30;99.90;;;;;;5004243;28;20129;-77
2022/04/26 14:35:23;;;;;;;2.47;1.92;;;8.50;99.90;;;;;;4996588;28;20042;-78
2022/04/26 14:37:53;;;;;;;2.30;2.05;;;8.60;99.90;;;;;;5006241;28;20038;-78
2022/04/26 14:40:23;;;;;;;2.42;2.10;;;8.80;99.90;;;;;;5005413;28;20039;-77
2022/04/26 14:42:54;;;;;;;1.88;1.60;;;8.90;99.90;;;;;;5009321;28;20042;-77
2022/04/26 14:45:21;;;;;;;2.22;2.03;;;8.90;99.90;;;;;;5007304;28;20034;-77
2022/04/26 14:47:47;;;;;;;2.72;2.17;;;8.80;99.90;;;;;;5006361;28;20041;-77
2022/04/26 14:50:13;;;;;;;4.80;2.70;;;8.80;99.90;;;;;;5006592;28;20044;-78
2022/04/26 14:52:39;;;;;;;3.65;2.80;;;8.90;99.90;;;;;;5008908;28;20045;-77
2022/04/26 14:55:08;;;;;;;3.42;2.67;;;8.90;99.90;;;;;;5009182;28;20066;-77
2022/04/26 14:57:34;;;;;;;2.75;2.53;;;9.10;99.90;;;;;;5007088;28;20030;-77
2022/04/26 14:59:59;;;;;;;1.65;1.55;;;9.30;99.90;;;;;;5010702;28;20484;-77
2022/04/26 15:02:25;;;;;;;2.95;2.35;;;9.40;99.90;;;;;;5008311;28;20062;-77
2022/04/26 15:04:51;;;;;;;4.00;2.60;;;9.60;99.90;;;;;;5007813;28;20037;-77
2022/04/26 15:07:17;;;;;;;2.38;2.17;;;9.80;99.90;;;;;;5009487;28;20037;-78
2022/04/26 15:09:43;;;;;;;4.10;2.70;;;9.70;99.90;;;;;;5010060;28;20131;-78
2022/04/26 15:17:48;;;;;;;3.83;2.38;;;9.70;99.90;;;;;;5010850;28;20080;-77
2022/04/26 15:20:13;;;;;;;;;;;9.80;99.90;;;;;;5004581;28;20034;-77
2022/04/26 15:22:39;;;;;;;3.92;2.45;;;9.80;99.90;;;;;;5008686;28;19911;-78
2022/04/26 15:25:06;;;;;;;2.25;2.05;;;9.90;99.90;;;;;;5006712;28;20033;-77
2022/04/26 15:27:34;;;;;;;2.97;2.22;;;10.10;99.90;;;;;;5009101;28;20424;-77
2022/04/26 15:30:01;;;;;;;3.47;2.55;;;10.40;99.90;;;;;;5010460;28;20033;-77
2022/04/26 15:32:26;;;;;;;3.35;2.42;;;10.30;99.90;;;;;;5009049;28;20034;-78
2022/04/26 15:34:52;;;;;;;2.70;2.28;;;10.30;99.90;;;;;;5008908;28;20034;-77
2022/04/26 15:37:18;;;;;;;4.40;2.63;;;10.40;99.90;;;;;;5009575;28;20084;-77
2022/04/26 15:39:47;;;;;;;2.33;2.13;;;10.60;99.90;;;;;;5006184;28;20478;-77
2022/04/26 15:42:14;;;;;;;3.42;2.63;;;10.60;99.90;;;;;;5007949;28;20044;-77
2022/04/26 15:44:40;;;;;;;2.38;2.15;;;10.40;99.90;;;;;;5010125;28;20038;-77
2022/04/26 15:47:09;;;;;;;3.20;2.53;;;10.40;99.90;;;;;;5006599;28;20527;-77
2022/04/26 15:49:35;;;;;;;2.15;1.92;;;10.40;99.90;;;;;;4993786;28;20029;-77
2022/04/26 15:52:00;;;;;;;2.60;2.40;;;10.40;99.90;;;;;;5004994;28;20040;-78
2022/04/26 15:54:29;;;;;;;3.17;2.22;;;10.40;99.90;;;;;;5010730;28;20377;-76
2022/04/26 15:56:55;;;;;;;2.60;1.88;;;10.40;99.90;;;;;;5010817;28;20761;-77
2022/04/26 15:59:21;;;;;;;2.25;2.05;;;10.20;99.90;;;;;;5008817;28;20046;-77
2022/04/26 16:01:46;;;;;;;1.98;1.85;;;10.30;99.90;;;;;;5009435;28;20046;-77
2022/04/26 16:04:12;;;;;;;1.52;1.42;;;10.40;99.90;;;;;;5004506;28;20560;-77
2022/04/26 16:06:39;;;;;;;1.85;1.42;;;10.50;99.90;;;;;;5010785;28;20044;-77
2022/04/26 16:20:29;;;;;;;1.70;1.60;;;10.40;99.90;;;;;;5009332;28;20045;-77
2022/04/26 16:22:59;;;;;;;2.22;1.65;;;10.40;99.90;;;;;;5011416;28;20066;-76
2022/04/26 16:25:26;;;;;;;1.17;1.17;;;10.60;99.90;;;;;;5012046;28;20516;-77
2022/04/26 16:27:51;;;;;;;3.45;1.80;;;10.50;99.90;;;;;;5012873;28;20037;-76
2022/04/26 16:30:17;;;;;;;3.15;1.75;;;10.50;99.90;;;;;;5008850;28;20038;-76
2022/04/26 16:32:43;;;;;;;3.85;1.60;;;10.70;99.90;;;;;;4989252;28;20041;-77
2022/04/26 16:35:13;;;;;;;2.05;1.70;;;10.80;99.90;;;;;;5001829;28;20042;-77
2022/04/26 16:37:40;;;;;;;2.58;2.00;;;10.80;99.90;;;;;;5003285;28;20064;-77
2022/04/26 16:40:06;;;;;;;4.40;1.80;;;10.60;99.90;;;;;;5008598;28;20026;-76
2022/04/26 16:42:32;;;;;;;2.88;2.00;;;10.40;99.90;;;;;;5005964;28;20065;-76
2022/04/26 16:44:58;;;;;;;1.88;1.70;;;10.20;99.90;;;;;;5008339;28;20105;-77
2022/04/26 16:47:23;;;;;;;1.95;1.80;;;10.00;99.90;;;;;;5022862;28;20239;-77
2022/04/26 16:49:49;;;;;;;2.53;2.10;;;9.80;99.90;;;;;;5008113;28;20026;-77
2022/04/26 16:52:15;;;;;;;3.00;2.13;;;9.80;99.90;;;;;;5007201;28;20037;-77
2022/04/26 16:54:41;;;;;;;2.30;2.10;;;9.80;99.90;;;;;;5005389;28;20152;-77
2022/04/26 16:57:07;;;;;;;2.35;2.00;;;9.90;99.90;;;;;;5008724;28;20076;-77
2022/04/26 16:59:32;;;;;;;2.10;1.92;;;9.90;99.90;;;;;;5007667;28;20037;-77
2022/04/26 17:01:58;;;;;;;3.03;2.28;;;9.80;99.90;;;;;;5006046;28;20056;-77
2022/04/26 17:04:24;;;;;;;2.70;2.33;;;9.80;99.90;;;;;;5001523;28;20628;-77
2022/04/26 17:06:50;;;;;;;2.22;2.03;;;9.60;99.90;;;;;;5003586;28;20144;-78
2022/04/26 17:09:20;;;;;;;2.58;1.85;;;8.80;99.90;;;;;;5009601;28;20037;-79
2022/04/26 17:11:47;;;;;;;1.70;1.60;;;8.40;99.90;;;;;;4992005;28;20041;-77
2022/04/26 17:14:15;;;;;;;6.28;3.28;;;8.00;99.90;;;;;;5007086;28;20493;-78
2022/04/26 17:16:43;;;;;;;4.97;3.13;;;8.10;99.90;;;;;;5006300;28;20061;-77
2022/04/26 17:19:08;;;;;;;4.85;3.67;;;8.20;99.90;;;;;;5006184;28;20449;-78
2022/04/26 17:21:34;;;;;;;4.18;3.72;;;8.40;99.90;;;;;;5008218;28;20053;-78
2022/04/26 17:24:03;;;;;;;4.82;4.20;;;8.40;99.90;;;;;;5006606;28;20030;-78